createdAt,value
2019-01-18T00:00:00.511Z,5.00
2019-01-18T00:02:34.240Z,5.00
2019-01-18T00:05:06.748Z,5.10
2019-01-18T00:07:38.306Z,5.10
2019-01-18T00:10:10.879Z,5.10
2019-01-18T00:12:42.369Z,5.00
2019-01-18T00:15:14.261Z,5.00
2019-01-18T00:17:45.633Z,5.00
2019-01-18T00:20:17.238Z,4.90
2019-01-18T00:22:48.905Z,4.90
2019-01-18T00:25:20.641Z,4.70
2019-01-18T00:27:52.481Z,4.60
2019-01-18T00:30:24.576Z,4.50
2019-01-18T00:32:56.024Z,4.50
2019-01-18T00:35:27.784Z,4.40
2019-01-18T00:37:59.053Z,4.40
2019-01-18T00:40:31.648Z,4.40
2019-01-18T00:43:03.016Z,4.30
2019-01-18T00:45:34.231Z,4.30
2019-01-18T00:48:06.283Z,4.40
2019-01-18T00:50:37.654Z,4.40
2019-01-18T00:53:10.245Z,4.30
2019-01-18T00:55:42.025Z,4.40
2019-01-18T00:58:14.009Z,4.40
2019-01-18T01:00:46.019Z,4.30
2019-01-18T01:03:17.780Z,4.20
2019-01-18T01:05:49.146Z,4.00
2019-01-18T01:08:20.571Z,3.70
2019-01-18T01:10:52.454Z,3.60
2019-01-18T01:13:23.978Z,3.60
2019-01-18T01:15:55.444Z,3.40
2019-01-18T01:18:26.920Z,3.30
2019-01-18T01:20:58.300Z,3.20
2019-01-18T01:23:30.119Z,3.30
2019-01-18T01:26:01.470Z,3.20
2019-01-18T01:28:32.706Z,3.10
2019-01-18T01:31:05.459Z,3.20
2019-01-18T01:33:36.921Z,3.20
2019-01-18T01:36:08.567Z,3.10
2019-01-18T01:38:40.161Z,3.20
2019-01-18T01:41:11.751Z,3.20
2019-01-18T01:43:43.670Z,3.20
2019-01-18T01:46:15.122Z,3.00
2019-01-18T01:48:47.084Z,2.90
2019-01-18T01:51:18.588Z,2.90
2019-01-18T01:53:50.020Z,2.80
2019-01-18T01:56:21.742Z,2.80
2019-01-18T01:58:53.376Z,2.80
2019-01-18T02:01:24.628Z,2.70
2019-01-18T02:03:59.173Z,2.60
2019-01-18T02:06:31.243Z,2.50
2019-01-18T02:09:02.510Z,2.40
2019-01-18T02:11:33.919Z,2.40
2019-01-18T02:14:05.907Z,2.40
2019-01-18T02:16:37.265Z,2.40
2019-01-18T02:19:08.630Z,2.40
2019-01-18T02:21:40.271Z,2.40
2019-01-18T02:24:11.579Z,2.40
2019-01-18T02:26:42.900Z,2.40
2019-01-18T02:29:14.267Z,2.30
2019-01-18T02:31:45.914Z,2.30
2019-01-18T02:34:17.520Z,2.30
2019-01-18T02:36:49.034Z,2.30
2019-01-18T02:39:20.792Z,2.30
2019-01-18T02:41:52.492Z,2.40
2019-01-18T02:44:24.284Z,2.20
2019-01-18T02:46:55.670Z,2.20
2019-01-18T02:49:27.006Z,2.20
2019-01-18T02:51:58.151Z,2.20
2019-01-18T02:54:29.623Z,2.20
2019-01-18T02:57:01.184Z,2.20
2019-01-18T02:59:32.543Z,2.20
2019-01-18T03:02:04.177Z,2.10
2019-01-18T03:04:35.852Z,2.20
2019-01-18T03:07:07.362Z,2.20
2019-01-18T03:09:38.759Z,2.20
2019-01-18T03:12:10.450Z,2.20
2019-01-18T03:14:41.666Z,2.20
2019-01-18T03:17:13.454Z,2.20
2019-01-18T03:19:45.276Z,2.30
2019-01-18T03:22:16.750Z,2.30
2019-01-18T03:24:48.408Z,2.30
2019-01-18T03:27:20.182Z,2.40
2019-01-18T03:29:52.159Z,2.30
2019-01-18T03:32:23.690Z,2.30
2019-01-18T03:34:55.359Z,2.20
2019-01-18T03:37:26.813Z,2.10
2019-01-18T03:39:58.305Z,2.00
2019-01-18T03:42:29.571Z,2.00
2019-01-18T03:45:01.181Z,1.90
2019-01-18T03:47:33.433Z,1.90
2019-01-18T03:50:05.741Z,2.00
2019-01-18T03:52:37.120Z,1.90
2019-01-18T03:55:09.552Z,1.80
2019-01-18T03:57:41.208Z,1.70
2019-01-18T04:00:15.318Z,1.70
2019-01-18T04:02:46.780Z,1.80
2019-01-18T04:05:18.101Z,1.70
2019-01-18T04:07:49.665Z,1.80
2019-01-18T04:10:21.725Z,1.80
2019-01-18T04:12:53.761Z,1.70
2019-01-18T04:15:35.401Z,1.70
2019-01-18T04:18:06.886Z,1.50
2019-01-18T04:20:38.225Z,1.50
2019-01-18T04:23:09.861Z,1.50
2019-01-18T04:25:41.674Z,1.60
2019-01-18T04:28:13.410Z,1.60
2019-01-18T04:30:45.016Z,1.60
2019-01-18T04:33:17.256Z,1.70
2019-01-18T04:35:48.666Z,1.60
2019-01-18T04:38:20.331Z,1.50
2019-01-18T04:40:53.152Z,1.30
2019-01-18T04:43:24.392Z,1.20
2019-01-18T04:45:55.888Z,1.10
2019-01-18T04:48:27.143Z,1.20
2019-01-18T04:50:58.506Z,1.20
2019-01-18T04:53:35.033Z,1.00
2019-01-18T04:56:06.817Z,1.10
2019-01-18T04:58:38.183Z,1.10
2019-01-18T05:01:09.521Z,1.20
2019-01-18T05:03:40.889Z,1.20
2019-01-18T05:06:15.020Z,1.30
2019-01-18T05:08:46.985Z,1.30
2019-01-18T05:11:18.376Z,1.40
2019-01-18T05:13:49.968Z,1.30
2019-01-18T05:16:21.800Z,1.40
2019-01-18T05:18:53.706Z,1.40
2019-01-18T05:21:25.284Z,1.40
2019-01-18T05:23:57.049Z,1.40
2019-01-18T05:26:29.213Z,1.40
2019-01-18T05:29:00.707Z,1.40
2019-01-18T05:31:32.141Z,1.40
2019-01-18T05:34:03.695Z,1.40
2019-01-18T05:36:35.088Z,1.50
2019-01-18T05:39:07.770Z,1.50
2019-01-18T05:41:39.176Z,1.50
2019-01-18T05:44:10.784Z,1.50
2019-01-18T05:46:42.042Z,1.40
2019-01-18T05:49:13.574Z,1.40
2019-01-18T05:51:45.443Z,1.40
2019-01-18T05:54:22.418Z,1.40
2019-01-18T05:56:53.995Z,1.50
2019-01-18T05:59:25.396Z,1.40
2019-01-18T06:01:56.751Z,1.50
2019-01-18T06:04:28.308Z,1.40
2019-01-18T06:06:59.797Z,1.40
2019-01-18T06:09:31.176Z,1.40
2019-01-18T06:12:03.163Z,1.30
2019-01-18T06:14:34.831Z,1.30
2019-01-18T06:17:06.535Z,1.30
2019-01-18T06:19:38.858Z,1.20
2019-01-18T06:22:10.454Z,1.10
2019-01-18T06:24:41.852Z,1.10
2019-01-18T06:27:14.387Z,1.10
2019-01-18T06:29:45.977Z,1.00
2019-01-18T06:32:17.392Z,0.90
2019-01-18T06:34:54.144Z,0.80
2019-01-18T06:37:25.810Z,0.80
2019-01-18T06:39:57.635Z,0.70
2019-01-18T06:42:29.155Z,0.70
2019-01-18T06:45:00.507Z,0.60
2019-01-18T06:47:32.021Z,0.60
2019-01-18T06:50:03.719Z,0.60
2019-01-18T06:52:34.995Z,0.50
2019-01-18T06:55:07.045Z,0.50
2019-01-18T06:57:39.960Z,0.50
2019-01-18T07:00:17.149Z,0.50
2019-01-18T07:02:48.663Z,0.40
2019-01-18T07:05:20.562Z,0.40
2019-01-18T07:07:52.371Z,0.40
2019-01-18T07:10:24.119Z,0.40
2019-01-18T07:13:01.525Z,0.30
2019-01-18T07:15:33.322Z,0.30
2019-01-18T07:18:04.915Z,0.30
2019-01-18T07:20:36.356Z,0.30
2019-01-18T07:23:07.811Z,0.30
2019-01-18T07:25:39.177Z,0.20
2019-01-18T07:28:10.786Z,0.20
2019-01-18T07:30:43.690Z,0.20
2019-01-18T07:33:16.855Z,0.30
2019-01-18T07:35:48.646Z,0.30
2019-01-18T07:38:20.065Z,0.40
2019-01-18T07:40:51.953Z,0.40
2019-01-18T07:43:23.868Z,0.50
2019-01-18T07:45:55.354Z,0.60
2019-01-18T07:48:26.911Z,0.60
2019-01-18T07:50:58.574Z,0.60
2019-01-18T07:53:30.126Z,0.50
2019-01-18T07:56:01.558Z,0.60
2019-01-18T07:58:32.995Z,0.50
2019-01-18T08:01:04.863Z,0.40
2019-01-18T08:03:41.523Z,0.50
2019-01-18T08:06:13.469Z,0.50
2019-01-18T08:08:45.278Z,0.60
2019-01-18T08:11:18.091Z,0.40
2019-01-18T08:13:50.072Z,0.60
2019-01-18T08:16:21.745Z,0.60
2019-01-18T08:18:53.658Z,0.60
2019-01-18T08:21:24.980Z,0.70
2019-01-18T08:23:56.593Z,0.70
2019-01-18T08:26:28.153Z,0.60
2019-01-18T08:28:59.524Z,0.60
2019-01-18T08:31:31.004Z,0.70
2019-01-18T08:34:03.025Z,0.70
2019-01-18T08:36:34.321Z,0.70
2019-01-18T08:39:08.346Z,0.60
2019-01-18T08:41:39.648Z,0.70
2019-01-18T08:44:11.477Z,0.70
2019-01-18T08:46:43.428Z,0.70
2019-01-18T08:49:14.882Z,0.70
2019-01-18T08:51:47.018Z,0.70
2019-01-18T08:54:18.429Z,0.70
2019-01-18T08:56:50.094Z,0.70
2019-01-18T08:59:22.369Z,0.80
2019-01-18T09:01:54.334Z,0.80
2019-01-18T09:04:25.953Z,0.90
2019-01-18T09:06:57.224Z,0.90
2019-01-18T09:09:28.602Z,1.00
2019-01-18T09:12:00.247Z,1.00
2019-01-18T09:14:31.855Z,1.00
2019-01-18T09:17:03.256Z,0.90
2019-01-18T09:19:34.445Z,0.90
2019-01-18T09:22:05.880Z,1.00
2019-01-18T09:24:43.201Z,1.20
2019-01-18T09:27:14.699Z,1.40
2019-01-18T09:29:46.539Z,1.50
2019-01-18T09:32:18.215Z,1.50
2019-01-18T09:34:50.023Z,1.50
2019-01-18T09:37:22.019Z,1.40
2019-01-18T09:39:53.778Z,1.50
2019-01-18T09:42:39.164Z,1.50
2019-01-18T09:45:11.288Z,1.50
2019-01-18T09:47:42.847Z,1.50
2019-01-18T09:50:19.443Z,1.60
2019-01-18T09:52:51.844Z,1.80
2019-01-18T09:55:23.325Z,1.80
2019-01-18T09:57:55.321Z,1.90
2019-01-18T10:00:29.066Z,1.80
2019-01-18T10:03:02.650Z,1.90
2019-01-18T10:05:36.161Z,1.90
2019-01-18T10:08:09.930Z,2.00
2019-01-18T10:10:42.999Z,2.00
2019-01-18T10:13:14.567Z,2.00
2019-01-18T10:15:49.144Z,2.00
2019-01-18T10:18:20.767Z,1.90
2019-01-18T10:20:52.481Z,1.90
2019-01-18T10:23:24.101Z,2.00
2019-01-18T10:25:55.548Z,2.10
2019-01-18T10:28:26.882Z,2.00
2019-01-18T10:30:58.393Z,2.10
2019-01-18T10:33:29.876Z,2.00
2019-01-18T10:36:01.331Z,2.10
2019-01-18T10:38:32.771Z,2.20
2019-01-18T10:41:04.264Z,2.00
2019-01-18T10:43:36.047Z,2.10
2019-01-18T10:46:07.526Z,2.00
2019-01-18T10:48:39.136Z,2.00
2019-01-18T10:51:10.526Z,2.00
2019-01-18T10:53:43.838Z,2.00
2019-01-18T10:56:15.463Z,1.90
2019-01-18T10:58:46.816Z,1.90
2019-01-18T11:01:18.194Z,1.90
2019-01-18T11:03:49.560Z,1.90
2019-01-18T11:06:21.390Z,1.90
2019-01-18T11:08:53.025Z,2.00
2019-01-18T11:11:24.505Z,1.90
2019-01-18T11:13:57.451Z,1.90
2019-01-18T11:16:28.943Z,1.90
2019-01-18T11:19:00.244Z,1.90
2019-01-18T11:21:31.681Z,2.00
2019-01-18T11:24:08.306Z,2.00
2019-01-18T11:26:39.619Z,2.00
2019-01-18T11:29:10.943Z,2.00
2019-01-18T11:31:42.646Z,2.00
2019-01-18T11:34:14.166Z,2.00
2019-01-18T11:36:45.602Z,2.00
2019-01-18T11:39:17.020Z,2.00
2019-01-18T11:41:48.517Z,2.00
2019-01-18T11:44:20.365Z,2.00
2019-01-18T11:46:52.288Z,2.00
2019-01-18T11:49:23.834Z,2.00
2019-01-18T11:51:55.286Z,2.00
2019-01-18T11:54:26.988Z,2.10
2019-01-18T11:56:58.552Z,2.10
2019-01-18T11:59:29.905Z,2.10
2019-01-18T12:02:01.314Z,2.10
2019-01-18T12:04:32.769Z,2.10
2019-01-18T12:07:04.151Z,2.20
2019-01-18T12:09:35.499Z,2.20
2019-01-18T12:12:07.090Z,2.10
2019-01-18T12:14:43.889Z,2.10
2019-01-18T12:17:15.241Z,2.10
2019-01-18T12:19:47.552Z,2.20
2019-01-18T12:22:19.581Z,2.20
2019-01-18T12:24:51.378Z,2.20
2019-01-18T12:27:22.884Z,2.20
2019-01-18T12:29:54.696Z,2.30
2019-01-18T12:32:28.797Z,2.20
2019-01-18T12:34:59.395Z,2.20
2019-01-18T12:37:31.139Z,2.20
2019-01-18T12:40:02.572Z,2.20
2019-01-18T12:42:33.999Z,2.10
2019-01-18T12:45:13.948Z,2.10
2019-01-18T12:47:46.031Z,2.10
2019-01-18T12:50:23.117Z,2.20
2019-01-18T12:52:54.898Z,2.10
2019-01-18T12:55:26.445Z,2.20
2019-01-18T12:57:57.779Z,2.10
2019-01-18T13:00:29.612Z,2.10
2019-01-18T13:03:01.540Z,2.20
2019-01-18T13:05:44.890Z,2.20
2019-01-18T13:08:16.155Z,2.10
2019-01-18T13:10:47.669Z,2.10
2019-01-18T13:13:19.286Z,2.10
2019-01-18T13:16:18.733Z,2.20
2019-01-18T13:18:53.151Z,2.20
2019-01-18T13:21:24.956Z,2.10
2019-01-18T13:24:02.110Z,2.10
2019-01-18T13:26:33.905Z,2.00
2019-01-18T13:29:05.711Z,2.00
2019-01-18T13:31:37.502Z,2.00
2019-01-18T13:34:09.528Z,2.00
2019-01-18T13:36:40.834Z,2.00
2019-01-18T13:39:12.497Z,1.90
2019-01-18T13:41:43.854Z,1.90
2019-01-18T13:44:15.130Z,1.80
2019-01-18T13:46:46.880Z,1.80
2019-01-18T13:49:18.597Z,1.80
2019-01-18T13:51:50.062Z,1.70
2019-01-18T13:54:21.677Z,1.80
2019-01-18T13:56:53.394Z,1.80
2019-01-18T13:59:24.959Z,1.80
2019-01-18T14:01:56.375Z,1.80
2019-01-18T14:04:27.823Z,1.80
2019-01-18T14:06:59.280Z,1.70
2019-01-18T14:09:30.843Z,1.70
2019-01-18T14:12:03.137Z,1.70
2019-01-18T14:14:34.938Z,1.60
2019-01-18T14:17:06.393Z,1.70
2019-01-18T14:19:37.713Z,1.60
2019-01-18T14:22:09.650Z,1.50
2019-01-18T14:24:41.305Z,1.50
2019-01-18T14:27:12.838Z,1.50
2019-01-18T14:29:44.617Z,1.40
2019-01-18T14:32:16.224Z,1.40
2019-01-18T14:34:48.069Z,1.40
2019-01-18T14:37:19.519Z,1.30
2019-01-18T14:39:51.547Z,1.30
2019-01-18T14:42:22.869Z,1.30
2019-01-18T14:44:54.867Z,1.30
2019-01-18T14:47:26.221Z,1.20
2019-01-18T14:49:57.597Z,1.20
2019-01-18T14:52:29.295Z,1.20
2019-01-18T14:55:00.672Z,1.20
2019-01-18T14:57:32.105Z,1.10
2019-01-18T15:00:04.392Z,1.10
2019-01-18T15:02:35.907Z,1.10
2019-01-18T15:05:08.702Z,1.10
2019-01-18T15:07:40.294Z,1.00
2019-01-18T15:10:14.037Z,1.00
2019-01-18T15:12:45.756Z,1.00
2019-01-18T15:15:17.448Z,1.00
2019-01-18T15:17:49.049Z,1.00
2019-01-18T15:20:23.255Z,1.00
2019-01-18T15:22:54.975Z,0.90
2019-01-18T15:25:26.468Z,0.90
2019-01-18T15:27:57.859Z,0.90
2019-01-18T15:30:30.513Z,0.90
2019-01-18T15:33:08.861Z,0.90
2019-01-18T15:35:38.554Z,0.80
2019-01-18T15:38:11.562Z,0.80
2019-01-18T15:40:47.617Z,0.80
2019-01-18T15:43:21.280Z,0.80
2019-01-18T15:45:52.905Z,0.80
2019-01-18T15:48:24.564Z,0.80
2019-01-18T15:50:56.097Z,0.80
2019-01-18T15:53:27.519Z,0.80
2019-01-18T15:55:59.563Z,0.70
2019-01-18T15:58:31.024Z,0.70
2019-01-18T16:01:02.882Z,0.70
2019-01-18T16:03:34.373Z,0.70
2019-01-18T16:06:06.220Z,0.70
2019-01-18T16:08:37.869Z,0.70
2019-01-18T16:11:09.324Z,0.60
2019-01-18T16:13:40.978Z,0.70
2019-01-18T16:16:26.156Z,0.60
2019-01-18T16:18:58.528Z,0.70
2019-01-18T16:21:30.300Z,0.60
2019-01-18T16:24:02.022Z,0.60
2019-01-18T16:26:33.391Z,0.60
2019-01-18T16:29:05.239Z,0.50
2019-01-18T16:31:36.818Z,0.50
2019-01-18T16:34:08.436Z,0.50
2019-01-18T16:36:40.211Z,0.50
2019-01-18T16:39:12.391Z,0.50
2019-01-18T16:41:44.981Z,0.60
2019-01-18T16:44:16.541Z,0.50
2019-01-18T16:46:48.263Z,0.50
2019-01-18T16:49:20.759Z,0.60
2019-01-18T16:51:52.943Z,0.50
2019-01-18T16:54:24.655Z,0.50
2019-01-18T16:56:56.044Z,0.40
2019-01-18T16:59:27.712Z,0.40
2019-01-18T17:01:59.203Z,0.40
2019-01-18T17:04:30.678Z,0.40
2019-01-18T17:07:02.154Z,0.40
2019-01-18T17:09:34.254Z,0.40
2019-01-18T17:12:05.782Z,0.30
2019-01-18T17:14:37.333Z,0.40
2019-01-18T17:17:08.832Z,0.40
2019-01-18T17:19:40.256Z,0.40
2019-01-18T17:22:11.623Z,0.40
2019-01-18T17:24:43.549Z,0.30
2019-01-18T17:27:14.920Z,0.30
2019-01-18T17:29:46.799Z,0.30
2019-01-18T17:32:18.248Z,0.30
2019-01-18T17:34:49.891Z,0.20
2019-01-18T17:37:26.995Z,0.20
2019-01-18T17:40:13.908Z,0.20
2019-01-18T17:43:14.761Z,0.10
2019-01-18T17:46:33.367Z,0.10
2019-01-18T17:49:36.889Z,0.10
2019-01-18T17:52:41.888Z,0.10
2019-01-18T17:55:55.298Z,0.10
2019-01-18T17:59:07.877Z,0.00
2019-01-18T18:02:34.022Z,0.00
2019-01-18T18:05:55.389Z,0.00
2019-01-18T18:09:00.526Z,0.00
2019-01-18T18:12:21.754Z,-0.10
2019-01-18T18:15:32.356Z,-0.10
2019-01-18T18:18:17.960Z,-0.10
2019-01-18T18:21:24.737Z,-0.10
2019-01-18T18:24:36.717Z,-0.20
2019-01-18T18:27:39.625Z,-0.20
2019-01-18T18:30:28.628Z,-0.20
2019-01-18T18:33:22.714Z,-0.20
2019-01-18T18:36:50.787Z,-0.20
2019-01-18T18:39:52.746Z,-0.20
2019-01-18T18:42:39.598Z,-0.20
2019-01-18T18:46:07.565Z,-0.20
2019-01-18T18:48:58.310Z,-0.10
2019-01-18T18:52:24.391Z,-0.10
2019-01-18T18:55:32.561Z,-0.20
2019-01-18T18:58:50.882Z,-0.20
2019-01-18T19:02:17.352Z,-0.20
2019-01-18T19:05:17.973Z,-0.20
2019-01-18T19:08:20.374Z,-0.20
2019-01-18T19:11:26.297Z,-0.20
2019-01-18T19:14:20.681Z,-0.30
2019-01-18T19:17:05.980Z,-0.30
2019-01-18T19:20:01.324Z,-0.30
2019-01-18T19:23:10.923Z,-0.30
2019-01-18T19:26:22.256Z,-0.30
2019-01-18T19:29:38.030Z,-0.30
2019-01-18T19:32:48.126Z,-0.30
2019-01-18T19:35:52.063Z,-0.30
2019-01-18T19:39:22.713Z,-0.30
2019-01-18T19:42:32.738Z,-0.20
2019-01-18T19:45:44.482Z,-0.30
2019-01-18T19:48:56.225Z,-0.20
2019-01-18T19:52:15.080Z,-0.10
2019-01-18T19:55:51.975Z,0.00
2019-01-18T19:58:59.127Z,-0.10
2019-01-18T20:01:57.252Z,-0.20
2019-01-18T20:04:59.946Z,-0.20
2019-01-18T20:08:01.377Z,-0.20
2019-01-18T20:11:13.229Z,-0.30
2019-01-18T20:14:20.295Z,-0.30
2019-01-18T20:17:23.685Z,-0.30
2019-01-18T20:20:28.981Z,-0.30
2019-01-18T20:23:40.490Z,-0.30
2019-01-18T20:26:41.446Z,-0.30
2019-01-18T20:29:49.882Z,-0.30
2019-01-18T20:33:11.571Z,-0.30
2019-01-18T20:36:09.330Z,-0.30
2019-01-18T20:39:21.811Z,-0.20
2019-01-18T20:42:33.089Z,-0.20
2019-01-18T20:45:43.493Z,-0.20
2019-01-18T20:48:55.455Z,-0.20
2019-01-18T20:52:02.184Z,-0.20
2019-01-18T20:55:10.149Z,-0.20
2019-01-18T20:58:29.285Z,-0.10
2019-01-18T21:01:37.310Z,-0.20
2019-01-18T21:05:00.743Z,-0.20
2019-01-18T21:08:13.768Z,-0.20
2019-01-18T21:11:15.276Z,-0.20
2019-01-18T21:14:10.757Z,-0.20
2019-01-18T21:17:35.753Z,-0.10
2019-01-18T21:20:30.679Z,-0.20
2019-01-18T21:23:32.964Z,-0.20
2019-01-18T21:26:45.808Z,-0.20
2019-01-18T21:29:46.956Z,-0.10
2019-01-18T21:32:45.097Z,-0.20
2019-01-18T21:36:08.770Z,-0.20
2019-01-18T21:39:29.504Z,-0.10
2019-01-18T21:42:21.457Z,-0.20
2019-01-18T21:45:28.516Z,-0.10
2019-01-18T21:48:36.851Z,-0.10
2019-01-18T21:51:35.036Z,-0.20
2019-01-18T21:54:20.831Z,-0.20
2019-01-18T21:57:35.097Z,-0.20
2019-01-18T22:00:55.091Z,-0.20
2019-01-18T22:04:19.856Z,-0.20
2019-01-18T22:07:30.517Z,-0.20
2019-01-18T22:10:36.509Z,-0.20
2019-01-18T22:13:38.644Z,-0.20
2019-01-18T22:17:12.443Z,-0.30
2019-01-18T22:20:19.842Z,-0.20
2019-01-18T22:23:37.579Z,-0.20
2019-01-18T22:26:45.009Z,-0.20
2019-01-18T22:29:49.164Z,-0.30
2019-01-18T22:32:50.131Z,-0.20
2019-01-18T22:35:46.640Z,-0.20
2019-01-18T22:38:55.838Z,-0.30
2019-01-18T22:42:05.975Z,-0.20
2019-01-18T22:44:59.734Z,-0.30
2019-01-18T22:48:23.671Z,-0.30
2019-01-18T22:51:28.498Z,-0.30
2019-01-18T22:55:10.329Z,-0.20
2019-01-18T22:58:18.668Z,-0.30
2019-01-18T23:01:32.896Z,-0.30
2019-01-18T23:04:30.130Z,-0.30
2019-01-18T23:08:01.010Z,-0.40
2019-01-18T23:11:02.870Z,-0.30
2019-01-18T23:14:14.419Z,-0.30
2019-01-18T23:17:32.395Z,-0.30
2019-01-18T23:21:07.067Z,-0.30
2019-01-18T23:24:07.646Z,-0.40
2019-01-18T23:27:00.479Z,-0.40
2019-01-18T23:29:57.156Z,-0.30
2019-01-18T23:32:50.190Z,-0.40
2019-01-18T23:35:46.477Z,-0.40
2019-01-18T23:38:40.598Z,-0.30
2019-01-18T23:41:40.136Z,-0.30
2019-01-18T23:45:00.803Z,-0.30
2019-01-18T23:47:50.316Z,-0.30
2019-01-18T23:51:00.129Z,-0.30
2019-01-18T23:53:48.801Z,-0.30
2019-01-18T23:57:10.663Z,-0.30
